Time;durP1;ratioP1;P1;durP2;ratioP2;P2;SDS_P1;SDS_P2;PMS_P1;PMS_P2;Temp;Humidity;BMP_temperature;BMP_pressure;BME280_temperature;BME280_humidity;BME280_pressure;Samples;Min_cycle;Max_cycle;Signal;HPM_P1;HPM_P2
2023/08/09 00:01:25;;;;;;;56.30;1.90;;;;;;;;;;5073759;28;20439;-68
2023/08/09 00:03:52;;;;;;;56.77;2.27;;;;;;;;;;5073396;28;21013;-68
2023/08/09 00:06:19;;;;;;;56.40;2.00;;;;;;;;;;5073660;28;20795;-68
2023/08/09 00:08:46;;;;;;;56.27;2.03;;;;;;;;;;5073889;28;20450;-68
2023/08/09 00:11:14;;;;;;;56.80;2.30;;;;;;;;;;5073729;28;20439;-68
2023/08/09 00:13:41;;;;;;;56.60;2.30;;;;;;;;;;5073437;28;20994;-68
2023/08/09 00:16:09;;;;;;;56.30;1.90;;;;;;;;;;5073635;28;20540;-68
2023/08/09 00:18:36;;;;;;;56.80;2.63;;;;;;;;;;5073508;28;20454;-68
2023/08/09 00:21:03;;;;;;;56.20;1.90;;;;;;;;;;5073546;28;20449;-68
2023/08/09 00:23:31;;;;;;;56.60;2.00;;;;;;;;;;5073214;28;20483;-68
2023/08/09 00:26:00;;;;;;;56.23;2.00;;;;;;;;;;5073504;28;20443;-68
2023/08/09 00:28:28;;;;;;;56.37;1.80;;;;;;;;;;5073509;28;20455;-68
2023/08/09 00:30:55;;;;;;;56.27;1.90;;;;;;;;;;5073352;28;20447;-68
2023/08/09 00:33:23;;;;;;;56.47;2.30;;;;;;;;;;5072788;28;20460;-68
2023/08/09 00:35:50;;;;;;;56.20;1.90;;;;;;;;;;5073344;28;20448;-68
2023/08/09 00:38:17;;;;;;;56.40;2.00;;;;;;;;;;5073292;28;20459;-68
2023/08/09 00:40:44;;;;;;;56.60;2.40;;;;;;;;;;5073141;28;20435;-68
2023/08/09 00:43:11;;;;;;;56.30;2.17;;;;;;;;;;5072633;28;20483;-68
2023/08/09 00:45:44;;;;;;;56.30;2.00;;;;;;;;;;5072934;28;20443;-68
2023/08/09 00:48:11;;;;;;;56.23;1.97;;;;;;;;;;5072952;28;20927;-68
2023/08/09 00:50:39;;;;;;;56.37;2.20;;;;;;;;;;5073154;28;20444;-68
2023/08/09 00:53:06;;;;;;;56.30;2.27;;;;;;;;;;5072761;28;20460;-68
2023/08/09 00:55:33;;;;;;;56.10;1.90;;;;;;;;;;5072780;28;20451;-68
2023/08/09 00:58:00;;;;;;;56.30;1.90;;;;;;;;;;5072798;28;20451;-68
2023/08/09 01:00:27;;;;;;;56.17;1.93;;;;;;;;;;5072737;28;21018;-68
2023/08/09 01:02:56;;;;;;;56.33;2.00;;;;;;;;;;5072375;28;20483;-70
2023/08/09 01:05:25;;;;;;;56.27;1.93;;;;;;;;;;5072725;28;20453;-68
2023/08/09 01:07:55;;;;;;;56.30;1.77;;;;;;;;;;5072682;28;20443;-69
2023/08/09 01:10:24;;;;;;;56.30;2.30;;;;;;;;;;5072739;28;20455;-69
2023/08/09 01:12:54;;;;;;;56.13;1.80;;;;;;;;;;5072110;28;20975;-69
2023/08/09 01:15:23;;;;;;;56.13;1.90;;;;;;;;;;5072603;28;20443;-69
2023/08/09 01:17:51;;;;;;;56.03;1.90;;;;;;;;;;5072574;28;20443;-69
2023/08/09 01:20:22;;;;;;;56.23;2.00;;;;;;;;;;5072566;28;20458;-68
2023/08/09 01:22:52;;;;;;;56.43;1.80;;;;;;;;;;5071959;28;20487;-68
2023/08/09 01:25:21;;;;;;;56.27;2.13;;;;;;;;;;5072095;28;20443;-69
2023/08/09 01:27:49;;;;;;;56.57;2.10;;;;;;;;;;5072217;28;20479;-69
2023/08/09 01:30:16;;;;;;;56.07;1.90;;;;;;;;;;5072095;28;20444;-69
2023/08/09 01:32:44;;;;;;;56.27;2.20;;;;;;;;;;5071997;28;20459;-69
2023/08/09 01:35:11;;;;;;;56.23;2.17;;;;;;;;;;5072283;28;20826;-69
2023/08/09 01:37:41;;;;;;;56.47;2.20;;;;;;;;;;5071857;28;20457;-69
2023/08/09 01:40:10;;;;;;;56.47;2.10;;;;;;;;;;5072539;28;20447;-69
2023/08/09 01:42:40;;;;;;;56.37;2.07;;;;;;;;;;5070046;28;20518;-69
2023/08/09 01:45:10;;;;;;;56.27;2.10;;;;;;;;;;5072815;28;20485;-70
2023/08/09 01:47:38;;;;;;;56.90;2.20;;;;;;;;;;5072014;28;20555;-70
2023/08/09 01:50:05;;;;;;;56.27;2.00;;;;;;;;;;5072050;28;20479;-70
2023/08/09 01:52:32;;;;;;;56.30;1.80;;;;;;;;;;5071581;28;20443;-71
2023/08/09 01:55:00;;;;;;;56.53;2.13;;;;;;;;;;5071861;28;20477;-69
2023/08/09 01:57:27;;;;;;;56.33;1.80;;;;;;;;;;5071628;28;20959;-70
2023/08/09 01:59:56;;;;;;;56.37;2.00;;;;;;;;;;5071568;28;20452;-70
2023/08/09 02:02:23;;;;;;;56.10;1.90;;;;;;;;;;5071242;28;21014;-70
2023/08/09 02:04:50;;;;;;;56.47;2.00;;;;;;;;;;5071747;28;20931;-69
2023/08/09 02:07:17;;;;;;;56.63;2.10;;;;;;;;;;5071747;28;20906;-69
2023/08/09 02:09:45;;;;;;;56.80;2.30;;;;;;;;;;5071132;28;20450;-70
2023/08/09 02:12:12;;;;;;;56.60;2.30;;;;;;;;;;5071330;28;20440;-70
2023/08/09 02:14:40;;;;;;;56.47;2.30;;;;;;;;;;5071397;28;20474;-70
2023/08/09 02:17:09;;;;;;;56.57;2.20;;;;;;;;;;5071662;28;20448;-70
2023/08/09 02:19:36;;;;;;;56.27;2.10;;;;;;;;;;5071405;28;20448;-69
2023/08/09 02:22:03;;;;;;;56.70;2.60;;;;;;;;;;5071207;28;20461;-69
2023/08/09 02:24:30;;;;;;;56.80;2.60;;;;;;;;;;5071407;28;20467;-69
2023/08/09 02:26:57;;;;;;;56.47;2.10;;;;;;;;;;5071223;28;20439;-70
2023/08/09 02:29:24;;;;;;;56.60;2.40;;;;;;;;;;5071517;28;20439;-70
2023/08/09 02:31:52;;;;;;;56.80;2.20;;;;;;;;;;5071034;28;20444;-70
2023/08/09 02:34:20;;;;;;;56.47;2.40;;;;;;;;;;5071260;28;20464;-70
2023/08/09 02:36:48;;;;;;;56.50;2.40;;;;;;;;;;5071158;28;20435;-70
2023/08/09 02:39:15;;;;;;;56.60;2.40;;;;;;;;;;5071265;28;20451;-69
2023/08/09 02:41:44;;;;;;;56.53;2.50;;;;;;;;;;5070819;28;20443;-69
2023/08/09 02:44:11;;;;;;;56.40;2.40;;;;;;;;;;5071024;28;20490;-69
2023/08/09 02:46:38;;;;;;;56.57;2.40;;;;;;;;;;5071115;28;20448;-69
2023/08/09 02:49:05;;;;;;;56.80;2.60;;;;;;;;;;5071104;28;20450;-69
2023/08/09 02:51:34;;;;;;;56.70;2.23;;;;;;;;;;5071109;28;20440;-70
2023/08/09 02:54:01;;;;;;;56.50;2.10;;;;;;;;;;5070778;28;20842;-69
2023/08/09 02:56:28;;;;;;;56.63;2.30;;;;;;;;;;5070857;28;20927;-69
2023/08/09 02:58:56;;;;;;;56.37;2.30;;;;;;;;;;5071139;28;20473;-69
2023/08/09 03:01:23;;;;;;;56.67;2.40;;;;;;;;;;5071005;28;20444;-70
2023/08/09 03:03:50;;;;;;;56.60;2.80;;;;;;;;;;5070573;28;20487;-70
2023/08/09 03:06:18;;;;;;;56.60;2.40;;;;;;;;;;5070891;28;20444;-69
2023/08/09 03:08:46;;;;;;;56.37;2.50;;;;;;;;;;5070772;28;20444;-69
2023/08/09 03:11:14;;;;;;;56.17;2.10;;;;;;;;;;5071115;28;20450;-69
2023/08/09 03:13:41;;;;;;;56.60;2.10;;;;;;;;;;5070829;28;20466;-69
2023/08/09 03:16:08;;;;;;;56.40;2.30;;;;;;;;;;5070856;28;20440;-69
2023/08/09 03:18:35;;;;;;;56.37;2.20;;;;;;;;;;5070898;28;20489;-69
2023/08/09 03:21:02;;;;;;;57.10;3.13;;;;;;;;;;5072821;28;20462;-69
2023/08/09 03:23:29;;;;;;;57.10;2.70;;;;;;;;;;5074278;28;20847;-70
2023/08/09 03:25:58;;;;;;;56.70;2.37;;;;;;;;;;5074678;28;20849;-70
2023/08/09 03:28:25;;;;;;;56.87;2.37;;;;;;;;;;5074607;28;20443;-69
2023/08/09 03:30:53;;;;;;;56.57;2.17;;;;;;;;;;5074524;28;20446;-70
2023/08/09 03:33:20;;;;;;;56.60;2.23;;;;;;;;;;5074069;28;20463;-69
2023/08/09 03:35:47;;;;;;;56.60;2.70;;;;;;;;;;5074243;28;20513;-70
2023/08/09 03:38:15;;;;;;;56.87;3.20;;;;;;;;;;5074343;28;20455;-69
2023/08/09 03:40:42;;;;;;;56.37;2.30;;;;;;;;;;5074393;28;20478;-69
2023/08/09 03:43:10;;;;;;;56.43;2.30;;;;;;;;;;5073952;28;20486;-70
2023/08/09 03:45:37;;;;;;;56.67;2.83;;;;;;;;;;5074130;28;20447;-69
2023/08/09 03:48:05;;;;;;;56.60;2.20;;;;;;;;;;5074079;28;21001;-69
2023/08/09 03:50:32;;;;;;;58.50;4.20;;;;;;;;;;5074027;28;20443;-69
2023/08/09 03:52:59;;;;;;;56.70;2.40;;;;;;;;;;5073972;28;20485;-69
2023/08/09 03:55:26;;;;;;;56.60;2.30;;;;;;;;;;5074208;28;20447;-69
2023/08/09 03:57:53;;;;;;;56.47;2.40;;;;;;;;;;5073970;28;20943;-69
2023/08/09 04:00:22;;;;;;;56.60;2.47;;;;;;;;;;5074030;28;20823;-69
2023/08/09 04:02:50;;;;;;;56.67;2.30;;;;;;;;;;5073427;28;20505;-69
2023/08/09 04:05:19;;;;;;;56.27;2.10;;;;;;;;;;5074053;28;20447;-69
2023/08/09 04:07:46;;;;;;;56.87;2.67;;;;;;;;;;5073955;28;20450;-69
2023/08/09 04:10:13;;;;;;;56.60;2.10;;;;;;;;;;5073887;28;20860;-69
2023/08/09 04:12:40;;;;;;;56.70;2.30;;;;;;;;;;5073436;28;20471;-69
2023/08/09 04:15:08;;;;;;;56.60;2.03;;;;;;;;;;5073661;28;20454;-69
2023/08/09 04:17:36;;;;;;;56.50;2.40;;;;;;;;;;5073825;28;20439;-70
2023/08/09 04:20:08;;;;;;;56.80;2.50;;;;;;;;;;5073587;28;20439;-69
2023/08/09 04:22:35;;;;;;;56.50;2.20;;;;;;;;;;5073288;28;20447;-69
2023/08/09 04:25:04;;;;;;;57.67;2.53;;;;;;;;;;5073504;28;20952;-69
2023/08/09 04:27:32;;;;;;;56.53;2.50;;;;;;;;;;5073332;28;20453;-69
2023/08/09 04:30:00;;;;;;;56.37;2.73;;;;;;;;;;5073288;28;20928;-69
2023/08/09 04:32:27;;;;;;;56.50;2.23;;;;;;;;;;5072868;28;20444;-70
2023/08/09 04:34:55;;;;;;;56.60;2.40;;;;;;;;;;5073468;28;20435;-69
2023/08/09 04:37:23;;;;;;;56.27;2.40;;;;;;;;;;5073188;28;20490;-70
2023/08/09 04:39:50;;;;;;;56.47;2.40;;;;;;;;;;5073132;28;20974;-70
2023/08/09 04:42:18;;;;;;;56.27;2.27;;;;;;;;;;5072722;28;20823;-69
2023/08/09 04:44:45;;;;;;;56.17;2.30;;;;;;;;;;5072961;28;21010;-69
2023/08/09 04:47:13;;;;;;;62.83;2.73;;;;;;;;;;5073203;28;20878;-69
2023/08/09 04:49:40;;;;;;;56.43;2.00;;;;;;;;;;5073013;28;20931;-69
2023/08/09 04:52:09;;;;;;;57.30;2.90;;;;;;;;;;5073088;28;20501;-70
2023/08/09 04:54:36;;;;;;;56.37;2.00;;;;;;;;;;5072849;28;20467;-69
2023/08/09 04:57:03;;;;;;;56.20;1.90;;;;;;;;;;5072609;28;20974;-69
2023/08/09 04:59:31;;;;;;;56.27;2.03;;;;;;;;;;5073027;28;20447;-69
2023/08/09 05:01:58;;;;;;;55.97;2.10;;;;;;;;;;5072757;28;20487;-70
2023/08/09 05:04:25;;;;;;;56.37;2.00;;;;;;;;;;5072601;28;20483;-69
2023/08/09 05:06:52;;;;;;;57.37;3.20;;;;;;;;;;5072696;28;20471;-69
2023/08/09 05:09:20;;;;;;;57.73;2.33;;;;;;;;;;5072617;28;20447;-69
2023/08/09 05:11:47;;;;;;;56.20;2.10;;;;;;;;;;5072520;28;21004;-69
2023/08/09 05:14:15;;;;;;;56.23;1.87;;;;;;;;;;5072437;28;20967;-69
2023/08/09 05:16:42;;;;;;;56.13;2.00;;;;;;;;;;5072740;28;20444;-69
2023/08/09 05:19:09;;;;;;;57.20;2.83;;;;;;;;;;5072478;28;20447;-69
2023/08/09 05:21:36;;;;;;;56.43;2.00;;;;;;;;;;5072193;28;20443;-69
2023/08/09 05:24:04;;;;;;;55.97;2.00;;;;;;;;;;5071997;28;20487;-69
2023/08/09 05:26:32;;;;;;;56.60;2.00;;;;;;;;;;5072413;28;20447;-69
2023/08/09 05:28:59;;;;;;;56.10;2.10;;;;;;;;;;5072390;28;20444;-69
2023/08/09 05:31:26;;;;;;;56.23;2.17;;;;;;;;;;5072109;28;20935;-69
2023/08/09 05:33:56;;;;;;;56.20;1.97;;;;;;;;;;5071874;28;20459;-69
2023/08/09 05:36:23;;;;;;;56.20;2.20;;;;;;;;;;5072081;28;20897;-68
2023/08/09 05:38:50;;;;;;;57.33;3.20;;;;;;;;;;5071836;28;20455;-67
2023/08/09 05:41:17;;;;;;;56.17;2.00;;;;;;;;;;5072142;28;20439;-68
2023/08/09 05:43:45;;;;;;;56.07;2.30;;;;;;;;;;5070829;28;20482;-69
2023/08/09 05:46:12;;;;;;;56.20;1.80;;;;;;;;;;5071959;28;20466;-69
2023/08/09 05:48:40;;;;;;;56.13;1.90;;;;;;;;;;5071954;28;20455;-69
2023/08/09 05:51:07;;;;;;;56.17;1.73;;;;;;;;;;5071698;28;20923;-69
2023/08/09 05:53:34;;;;;;;56.17;1.77;;;;;;;;;;5071681;28;20822;-69
2023/08/09 05:56:01;;;;;;;57.27;2.10;;;;;;;;;;5071819;28;20465;-68
2023/08/09 05:58:28;;;;;;;56.30;2.20;;;;;;;;;;5071831;28;20446;-68
2023/08/09 06:00:58;;;;;;;57.00;3.23;;;;;;;;;;5071648;28;20455;-69
2023/08/09 06:03:25;;;;;;;56.00;2.10;;;;;;;;;;5071267;28;20487;-69
2023/08/09 06:05:52;;;;;;;56.10;1.80;;;;;;;;;;5071431;28;20827;-69
2023/08/09 06:08:19;;;;;;;56.70;2.00;;;;;;;;;;5071968;28;20443;-69
2023/08/09 06:10:46;;;;;;;56.10;1.90;;;;;;;;;;5071660;28;20447;-69
2023/08/09 06:13:13;;;;;;;55.93;1.90;;;;;;;;;;5071580;28;20474;-69
2023/08/09 06:15:40;;;;;;;56.60;2.43;;;;;;;;;;5071462;28;20443;-69
2023/08/09 06:18:08;;;;;;;56.20;2.00;;;;;;;;;;5071417;28;20440;-69
2023/08/09 06:20:35;;;;;;;56.17;1.87;;;;;;;;;;5071297;28;20963;-69
2023/08/09 06:23:02;;;;;;;55.87;1.90;;;;;;;;;;5071381;28;20835;-69
2023/08/09 06:25:29;;;;;;;56.00;2.00;;;;;;;;;;5071170;28;20858;-69
2023/08/09 06:27:57;;;;;;;56.07;1.90;;;;;;;;;;5071424;28;20819;-69
2023/08/09 06:30:24;;;;;;;55.97;1.80;;;;;;;;;;5071662;28;20457;-69
2023/08/09 06:32:51;;;;;;;56.37;2.10;;;;;;;;;;5071190;28;20463;-69
2023/08/09 06:35:20;;;;;;;56.17;2.00;;;;;;;;;;5071139;28;20451;-69
2023/08/09 06:37:48;;;;;;;56.17;1.80;;;;;;;;;;5071022;28;20463;-69
2023/08/09 06:40:16;;;;;;;56.27;1.90;;;;;;;;;;5071037;28;20454;-69
2023/08/09 06:42:43;;;;;;;56.17;2.20;;;;;;;;;;5070871;28;20459;-69
2023/08/09 06:45:11;;;;;;;56.20;2.00;;;;;;;;;;5071034;28;20493;-69
2023/08/09 06:47:38;;;;;;;56.27;1.83;;;;;;;;;;5070879;28;20439;-69
2023/08/09 06:50:06;;;;;;;56.30;1.90;;;;;;;;;;5071242;28;20526;-69
2023/08/09 06:52:36;;;;;;;56.17;2.07;;;;;;;;;;5070838;28;20439;-69
2023/08/09 06:55:03;;;;;;;56.73;2.00;;;;;;;;;;5073367;28;20444;-69
2023/08/09 06:57:30;;;;;;;56.23;1.90;;;;;;;;;;5075175;28;20457;-69
2023/08/09 06:59:57;;;;;;;56.47;2.00;;;;;;;;;;5074968;28;20620;-69
2023/08/09 07:02:24;;;;;;;56.50;2.30;;;;;;;;;;5074648;28;20980;-69
2023/08/09 07:04:53;;;;;;;57.53;2.20;;;;;;;;;;5075267;28;20482;-69
2023/08/09 07:07:20;;;;;;;56.23;1.97;;;;;;;;;;5074982;28;20443;-69
2023/08/09 07:09:50;;;;;;;56.37;2.10;;;;;;;;;;5074912;28;20446;-69
2023/08/09 07:12:17;;;;;;;56.70;2.20;;;;;;;;;;5074494;28;20831;-69
2023/08/09 07:14:45;;;;;;;56.20;1.90;;;;;;;;;;5074743;28;20440;-69
2023/08/09 07:17:12;;;;;;;56.50;2.53;;;;;;;;;;5074676;28;20621;-69
2023/08/09 07:19:39;;;;;;;56.27;2.30;;;;;;;;;;5074809;28;20450;-69
2023/08/09 07:22:06;;;;;;;56.20;1.90;;;;;;;;;;5074429;28;20450;-69
2023/08/09 07:24:33;;;;;;;56.60;1.90;;;;;;;;;;5074414;28;20483;-69
2023/08/09 07:27:02;;;;;;;56.20;1.80;;;;;;;;;;5074463;28;20443;-69
2023/08/09 07:29:29;;;;;;;56.13;2.03;;;;;;;;;;5074754;28;20446;-69
2023/08/09 07:31:56;;;;;;;56.20;1.80;;;;;;;;;;5074381;28;20454;-69
2023/08/09 07:34:23;;;;;;;55.97;2.00;;;;;;;;;;5074342;28;20541;-69
2023/08/09 07:36:50;;;;;;;56.13;1.67;;;;;;;;;;5074246;28;20445;-69
2023/08/09 07:39:17;;;;;;;56.07;1.60;;;;;;;;;;5074332;28;20520;-69
2023/08/09 07:41:45;;;;;;;56.07;1.93;;;;;;;;;;5073910;28;20437;-69
2023/08/09 07:44:13;;;;;;;56.33;2.17;;;;;;;;;;5074266;28;20483;-69
2023/08/09 07:46:40;;;;;;;56.27;2.00;;;;;;;;;;5074243;28;20448;-70
2023/08/09 07:49:07;;;;;;;55.87;1.70;;;;;;;;;;5074267;28;20439;-69
2023/08/09 07:51:34;;;;;;;56.50;1.87;;;;;;;;;;5074092;28;20439;-70
2023/08/09 07:54:02;;;;;;;55.83;1.90;;;;;;;;;;5073824;28;20466;-69
2023/08/09 07:56:29;;;;;;;55.87;1.70;;;;;;;;;;5074261;28;20451;-69
2023/08/09 07:58:56;;;;;;;56.10;1.90;;;;;;;;;;5074215;28;20443;-69
2023/08/09 08:01:25;;;;;;;56.17;1.83;;;;;;;;;;5073922;28;20439;-69
2023/08/09 08:03:52;;;;;;;56.40;1.80;;;;;;;;;;5073553;28;20459;-69
2023/08/09 08:06:20;;;;;;;57.00;3.07;;;;;;;;;;5073125;28;20439;-69
2023/08/09 08:08:47;;;;;;;57.37;2.10;;;;;;;;;;5073670;28;20443;-69
2023/08/09 08:11:14;;;;;;;55.97;1.73;;;;;;;;;;5073704;28;20453;-69
2023/08/09 08:13:41;;;;;;;56.10;1.83;;;;;;;;;;5073366;28;20997;-69
2023/08/09 08:16:08;;;;;;;56.17;1.63;;;;;;;;;;5073657;28;20443;-69
2023/08/09 08:18:37;;;;;;;56.97;2.73;;;;;;;;;;5073718;28;20539;-69
2023/08/09 08:21:04;;;;;;;56.17;1.80;;;;;;;;;;5073453;28;20447;-69
2023/08/09 08:23:32;;;;;;;55.97;1.90;;;;;;;;;;5073151;28;20521;-69
2023/08/09 08:25:59;;;;;;;56.30;1.90;;;;;;;;;;5073491;28;20479;-70
2023/08/09 08:28:26;;;;;;;55.87;1.83;;;;;;;;;;5073584;28;20510;-70
2023/08/09 08:30:53;;;;;;;56.27;2.00;;;;;;;;;;5073589;28;20443;-70
2023/08/09 08:33:21;;;;;;;56.00;1.70;;;;;;;;;;5073060;28;20474;-70
2023/08/09 08:35:50;;;;;;;55.93;1.73;;;;;;;;;;5073138;28;20882;-70
2023/08/09 08:38:17;;;;;;;56.10;2.17;;;;;;;;;;5073165;28;20463;-70
2023/08/09 08:40:44;;;;;;;56.10;2.10;;;;;;;;;;5073165;28;20978;-69
2023/08/09 08:43:13;;;;;;;56.20;1.80;;;;;;;;;;5072937;28;20471;-70
2023/08/09 08:45:40;;;;;;;56.57;2.00;;;;;;;;;;5073046;28;20900;-69
2023/08/09 08:48:09;;;;;;;56.70;2.43;;;;;;;;;;5073044;28;20439;-69
2023/08/09 08:50:38;;;;;;;57.47;2.63;;;;;;;;;;5073216;28;20440;-69
2023/08/09 08:53:07;;;;;;;56.03;1.80;;;;;;;;;;5072705;28;20463;-69
2023/08/09 08:55:34;;;;;;;56.90;2.17;;;;;;;;;;5072906;28;20461;-69
2023/08/09 08:58:03;;;;;;;56.10;1.80;;;;;;;;;;5073073;28;20446;-69
2023/08/09 09:00:30;;;;;;;56.77;2.10;;;;;;;;;;5072808;28;20451;-69
2023/08/09 09:02:57;;;;;;;56.50;2.37;;;;;;;;;;5072316;28;20495;-69
2023/08/09 09:05:25;;;;;;;56.27;1.87;;;;;;;;;;5072785;28;20483;-69
2023/08/09 09:07:56;;;;;;;56.07;1.80;;;;;;;;;;5072787;28;20450;-69
2023/08/09 09:10:24;;;;;;;55.97;1.80;;;;;;;;;;5072638;28;21015;-69
2023/08/09 09:12:53;;;;;;;56.20;1.90;;;;;;;;;;5072284;28;20464;-69
2023/08/09 09:15:20;;;;;;;56.90;1.90;;;;;;;;;;5072369;28;20451;-69
2023/08/09 09:17:48;;;;;;;56.30;1.87;;;;;;;;;;5071357;28;20452;-69
2023/08/09 09:20:18;;;;;;;56.50;2.00;;;;;;;;;;5072337;28;20927;-69
2023/08/09 09:22:46;;;;;;;55.97;1.70;;;;;;;;;;5072223;28;20772;-69
2023/08/09 09:25:14;;;;;;;56.10;1.97;;;;;;;;;;5072292;28;20482;-68
2023/08/09 09:27:43;;;;;;;56.80;2.30;;;;;;;;;;5072269;28;21002;-69
2023/08/09 09:30:14;;;;;;;56.20;1.90;;;;;;;;;;5072408;28;20447;-69
2023/08/09 09:32:42;;;;;;;57.43;2.33;;;;;;;;;;5072048;28;20467;-69
2023/08/09 09:35:11;;;;;;;56.17;1.90;;;;;;;;;;5072063;28;20444;-69
2023/08/09 09:37:38;;;;;;;55.87;1.80;;;;;;;;;;5071990;28;20546;-69
2023/08/09 09:40:10;;;;;;;56.30;2.00;;;;;;;;;;5072061;28;20443;-69
2023/08/09 09:42:37;;;;;;;56.07;1.63;;;;;;;;;;5071712;28;20464;-69
2023/08/09 09:45:07;;;;;;;56.07;1.93;;;;;;;;;;5072028;28;20870;-69
2023/08/09 09:47:38;;;;;;;56.00;1.80;;;;;;;;;;5071815;28;20500;-69
2023/08/09 09:50:07;;;;;;;55.97;1.90;;;;;;;;;;5071779;28;20506;-69
2023/08/09 09:52:35;;;;;;;55.97;2.00;;;;;;;;;;5071477;28;20444;-69
2023/08/09 09:55:02;;;;;;;56.20;1.80;;;;;;;;;;5071649;28;20443;-69
2023/08/09 09:57:30;;;;;;;56.03;1.80;;;;;;;;;;5071642;28;20440;-69
2023/08/09 09:59:58;;;;;;;56.20;1.80;;;;;;;;;;5071818;28;20895;-69
2023/08/09 10:02:30;;;;;;;55.97;1.67;;;;;;;;;;5071377;28;20527;-69
2023/08/09 10:04:58;;;;;;;56.20;2.07;;;;;;;;;;5071561;28;20479;-69
2023/08/09 10:07:28;;;;;;;56.20;2.20;;;;;;;;;;5071329;28;20443;-69
2023/08/09 10:09:55;;;;;;;56.10;2.03;;;;;;;;;;5071943;28;20511;-69
2023/08/09 10:12:22;;;;;;;56.17;1.80;;;;;;;;;;5071465;28;20457;-69
2023/08/09 10:14:49;;;;;;;56.27;2.00;;;;;;;;;;5071561;28;20443;-69
2023/08/09 10:17:19;;;;;;;56.20;1.70;;;;;;;;;;5071437;28;20436;-69
2023/08/09 10:19:47;;;;;;;55.93;1.60;;;;;;;;;;5071452;28;20799;-69
2023/08/09 10:22:18;;;;;;;56.10;1.90;;;;;;;;;;5071018;28;20439;-69
2023/08/09 10:24:47;;;;;;;55.83;1.60;;;;;;;;;;5071494;28;20514;-69
2023/08/09 10:27:14;;;;;;;56.07;1.73;;;;;;;;;;5071500;28;20650;-69
2023/08/09 10:29:42;;;;;;;56.17;1.90;;;;;;;;;;5071020;28;20439;-69
2023/08/09 10:32:09;;;;;;;56.07;1.87;;;;;;;;;;5071139;28;20631;-69
2023/08/09 10:34:37;;;;;;;55.97;1.60;;;;;;;;;;5071074;28;20550;-69
2023/08/09 10:37:06;;;;;;;56.50;2.27;;;;;;;;;;5071258;28;20544;-69
2023/08/09 10:39:35;;;;;;;56.00;1.90;;;;;;;;;;5071423;28;20530;-69
2023/08/09 10:42:03;;;;;;;56.13;1.80;;;;;;;;;;5070941;28;20439;-69
2023/08/09 10:44:34;;;;;;;56.40;2.10;;;;;;;;;;5070907;28;20463;-69
2023/08/09 10:47:05;;;;;;;56.07;1.90;;;;;;;;;;5070933;28;20443;-69
2023/08/09 10:49:45;;;;;;;56.10;1.70;;;;;;;;;;5071269;28;20453;-70
2023/08/09 10:52:14;;;;;;;57.17;3.03;;;;;;;;;;5070985;28;20829;-70
2023/08/09 10:54:41;;;;;;;56.17;1.77;;;;;;;;;;5071010;28;20459;-69
2023/08/09 10:57:09;;;;;;;55.93;1.93;;;;;;;;;;5070969;28;20827;-70
2023/08/09 10:59:37;;;;;;;56.07;2.00;;;;;;;;;;5070874;28;20482;-69
2023/08/09 11:02:05;;;;;;;56.40;2.00;;;;;;;;;;5070869;28;20448;-69
2023/08/09 11:04:32;;;;;;;56.90;2.13;;;;;;;;;;5071004;28;20542;-69
2023/08/09 11:06:59;;;;;;;56.10;2.00;;;;;;;;;;5071012;28;20514;-69
2023/08/09 11:09:27;;;;;;;56.40;2.00;;;;;;;;;;5071040;28;20450;-69
2023/08/09 11:11:55;;;;;;;56.13;1.83;;;;;;;;;;5070477;28;20935;-70
2023/08/09 11:14:24;;;;;;;56.17;1.97;;;;;;;;;;5070669;28;20808;-69
2023/08/09 11:16:51;;;;;;;56.27;1.90;;;;;;;;;;5070910;28;20436;-70
2023/08/09 11:19:19;;;;;;;56.77;1.90;;;;;;;;;;5070900;28;20435;-67
2023/08/09 11:21:47;;;;;;;56.23;1.70;;;;;;;;;;5070582;28;20519;-67
2023/08/09 11:24:15;;;;;;;56.07;1.80;;;;;;;;;;5070724;28;20859;-67
2023/08/09 11:26:48;;;;;;;56.77;2.53;;;;;;;;;;5071026;28;20483;-70
2023/08/09 11:29:15;;;;;;;56.60;2.00;;;;;;;;;;5070944;28;20459;-69
2023/08/09 11:31:43;;;;;;;56.90;1.83;;;;;;;;;;5070597;28;20443;-69
2023/08/09 11:34:12;;;;;;;55.97;1.80;;;;;;;;;;5070643;28;20459;-69
2023/08/09 11:36:40;;;;;;;56.13;1.97;;;;;;;;;;5070592;28;20439;-69
2023/08/09 11:39:08;;;;;;;56.17;1.70;;;;;;;;;;5070458;28;20465;-69
2023/08/09 11:41:41;;;;;;;56.17;1.80;;;;;;;;;;5071856;28;20918;-69
2023/08/09 11:44:11;;;;;;;56.30;2.00;;;;;;;;;;5074431;28;20525;-69
2023/08/09 11:46:40;;;;;;;56.47;2.10;;;;;;;;;;5074110;28;20489;-69
2023/08/09 11:49:07;;;;;;;59.23;1.90;;;;;;;;;;5074047;28;20453;-69
2023/08/09 11:51:35;;;;;;;56.00;1.70;;;;;;;;;;5073911;28;20440;-70
2023/08/09 11:54:02;;;;;;;55.73;1.70;;;;;;;;;;5074108;28;20459;-70
2023/08/09 11:56:33;;;;;;;55.60;1.80;;;;;;;;;;5074095;28;20453;-70
2023/08/09 11:59:00;;;;;;;55.87;1.63;;;;;;;;;;5073975;28;20890;-70
2023/08/09 12:01:30;;;;;;;56.00;1.73;;;;;;;;;;5074028;28;20439;-70
2023/08/09 12:03:58;;;;;;;56.30;1.70;;;;;;;;;;5073649;28;20466;-69
2023/08/09 12:06:35;;;;;;;57.53;2.37;;;;;;;;;;5073686;28;20490;-70
2023/08/09 12:09:22;;;;;;;56.00;1.83;;;;;;;;;;5074034;28;20434;-70
2023/08/09 12:11:50;;;;;;;56.23;2.03;;;;;;;;;;5073446;28;20443;-70
2023/08/09 12:14:17;;;;;;;55.97;1.90;;;;;;;;;;5073685;28;20990;-70
2023/08/09 12:16:45;;;;;;;55.97;2.07;;;;;;;;;;5073905;28;20444;-70
2023/08/09 12:19:12;;;;;;;56.03;1.87;;;;;;;;;;5073847;28;20439;-69
2023/08/09 12:21:39;;;;;;;55.77;1.70;;;;;;;;;;5073540;28;20435;-69
2023/08/09 12:24:07;;;;;;;55.93;1.60;;;;;;;;;;5073605;28;20462;-69
2023/08/09 12:26:34;;;;;;;55.83;1.80;;;;;;;;;;5073478;28;20609;-69
2023/08/09 12:29:01;;;;;;;55.87;2.00;;;;;;;;;;5073398;28;20443;-69
2023/08/09 12:31:28;;;;;;;55.77;1.70;;;;;;;;;;5073368;28;20538;-69
2023/08/09 12:33:56;;;;;;;56.17;1.57;;;;;;;;;;5073058;28;20467;-69
2023/08/09 12:36:24;;;;;;;55.87;1.93;;;;;;;;;;5073386;28;20446;-69
2023/08/09 12:38:51;;;;;;;56.17;1.60;;;;;;;;;;5073180;28;20470;-69
2023/08/09 12:41:18;;;;;;;55.67;1.50;;;;;;;;;;5073197;28;20493;-69
2023/08/09 12:43:45;;;;;;;56.47;2.40;;;;;;;;;;5072801;28;20459;-69
2023/08/09 12:46:12;;;;;;;56.40;1.70;;;;;;;;;;5073212;28;20482;-69
2023/08/09 12:48:39;;;;;;;56.10;1.67;;;;;;;;;;5073273;28;20440;-69
2023/08/09 12:51:07;;;;;;;55.77;1.57;;;;;;;;;;5073002;28;20455;-69
2023/08/09 12:53:34;;;;;;;55.60;1.57;;;;;;;;;;5072533;28;20463;-69
2023/08/09 12:56:03;;;;;;;55.53;1.70;;;;;;;;;;5072845;28;20447;-69
2023/08/09 12:58:30;;;;;;;55.90;1.90;;;;;;;;;;5072789;28;20542;-69
2023/08/09 13:00:57;;;;;;;55.97;1.77;;;;;;;;;;5072988;28;20450;-69
2023/08/09 13:03:24;;;;;;;60.43;4.03;;;;;;;;;;5072578;28;20464;-70
2023/08/09 13:05:51;;;;;;;55.57;1.70;;;;;;;;;;5072699;28;20513;-69
2023/08/09 13:08:20;;;;;;;56.67;2.67;;;;;;;;;;5073190;28;20462;-69
2023/08/09 13:10:47;;;;;;;55.83;1.60;;;;;;;;;;5072557;28;20451;-69
2023/08/09 13:13:14;;;;;;;56.20;2.00;;;;;;;;;;5072375;28;20460;-69
2023/08/09 13:15:41;;;;;;;56.20;1.60;;;;;;;;;;5072576;28;20435;-69
2023/08/09 13:18:08;;;;;;;57.07;2.87;;;;;;;;;;5072515;28;20444;-69
2023/08/09 13:20:36;;;;;;;57.90;2.50;;;;;;;;;;5072482;28;20443;-69
2023/08/09 13:23:03;;;;;;;56.37;2.00;;;;;;;;;;5072141;28;20812;-69
2023/08/09 13:25:31;;;;;;;56.10;1.60;;;;;;;;;;5072063;28;20470;-69
2023/08/09 13:27:58;;;;;;;56.20;1.80;;;;;;;;;;5072455;28;20455;-69
2023/08/09 13:30:26;;;;;;;55.90;1.80;;;;;;;;;;5072333;28;20462;-67
2023/08/09 13:32:53;;;;;;;56.80;2.83;;;;;;;;;;5072010;28;20834;-67
2023/08/09 13:35:20;;;;;;;57.50;2.90;;;;;;;;;;5072063;28;20927;-67
2023/08/09 13:37:47;;;;;;;56.00;2.10;;;;;;;;;;5071931;28;20834;-67
2023/08/09 13:40:14;;;;;;;56.07;1.93;;;;;;;;;;5072293;28;20814;-67
2023/08/09 13:42:43;;;;;;;56.27;1.90;;;;;;;;;;5071551;28;20471;-66
2023/08/09 13:45:11;;;;;;;56.00;1.70;;;;;;;;;;5072008;28;20496;-67
2023/08/09 13:47:38;;;;;;;55.83;1.87;;;;;;;;;;5071712;28;20483;-66
2023/08/09 13:50:06;;;;;;;55.67;1.80;;;;;;;;;;5071879;28;20444;-66
2023/08/09 13:52:33;;;;;;;56.07;2.23;;;;;;;;;;5071752;28;20919;-67
2023/08/09 13:55:00;;;;;;;55.80;1.90;;;;;;;;;;5071967;28;20823;-69
2023/08/09 13:57:27;;;;;;;55.90;1.70;;;;;;;;;;5071775;28;20439;-69
2023/08/09 13:59:55;;;;;;;55.47;1.70;;;;;;;;;;5072033;28;20439;-69
2023/08/09 14:02:23;;;;;;;55.93;1.67;;;;;;;;;;5071357;28;20514;-69
2023/08/09 14:04:50;;;;;;;55.60;1.80;;;;;;;;;;5070941;28;20451;-69
2023/08/09 14:07:17;;;;;;;55.77;1.63;;;;;;;;;;5071430;28;21190;-69
2023/08/09 14:09:44;;;;;;;56.20;1.70;;;;;;;;;;5071390;28;20936;-69
2023/08/09 14:12:11;;;;;;;55.70;1.90;;;;;;;;;;5071393;28;20819;-69
2023/08/09 14:14:38;;;;;;;55.90;1.80;;;;;;;;;;5071468;28;20476;-69
2023/08/09 14:17:07;;;;;;;56.87;2.50;;;;;;;;;;5071463;28;20450;-69
2023/08/09 14:19:34;;;;;;;56.10;1.90;;;;;;;;;;5071271;28;20439;-69
2023/08/09 14:22:03;;;;;;;55.83;1.90;;;;;;;;;;5071303;28;20458;-69
2023/08/09 14:24:30;;;;;;;55.40;1.67;;;;;;;;;;5071419;28;20459;-69
2023/08/09 14:26:57;;;;;;;56.20;2.00;;;;;;;;;;5071325;28;20475;-69
2023/08/09 14:29:24;;;;;;;56.10;2.00;;;;;;;;;;5071376;28;20439;-69
2023/08/09 14:31:51;;;;;;;56.47;1.80;;;;;;;;;;5070967;28;20510;-67
2023/08/09 14:34:20;;;;;;;55.87;1.87;;;;;;;;;;5071086;28;20806;-67